Flight Track Log - Related Links

Times and Time Zones

All times are in EDT time to prevent confusion due to time zone crossing. See the KAP2826 flight status page for this flight to view local times or setup timezone preferences in your user account.

Time Position Orientation Groundspeed Altitude Reporting Facility
EDT Latitude Longitude Course Direction KTS MPH feet Rate Location/Type
Thu 07:18:53 PM 42.3500 -70.9833 114° Southeast 122 140 700  Level KA90
Thu 07:20:17 PM 42.3333 -70.9333 114° Southeast 108 124 1,500 538 Climbing KA90
Thu 07:21:18 PM 42.3000 -70.9167 160° South 111 128 2,000 446 Climbing KA90
Thu 07:22:18 PM 42.2667 -70.8833 143° Southeast 125 144 2,400 432 Climbing KA90
Thu 07:23:23 PM 42.2333 -70.8667 160° South 132 152 2,900 429 Climbing KA90
Thu 07:24:24 PM 42.2000 -70.8333 143° Southeast 130 150 3,300 500 Climbing KA90
Thu 07:25:11 PM 42.1833 -70.8167 143° Southeast 143 165 3,800 556 Climbing KA90
Thu 07:26:12 PM 42.1500 -70.7833 143° Southeast 143 165 4,300 492 Climbing KA90
Thu 07:28:00 PM 42.1100 -70.7505 116° Southeast  Level Estimated
Thu 07:35:00 PM 42.1257 -70.5059 85° East  Level FlightAware Approximate
Thu 07:36:00 PM 42.1279 -70.4709 85° East  Level FlightAware Approximate
Thu 07:37:00 PM 42.1033 -70.4592 114° Southeast  Level Estimated
Thu 07:38:00 PM 42.0965 -70.4254 105° East  Level FlightAware Approximate
Thu 07:39:00 PM 42.0897 -70.3915 105° East  Level FlightAware Approximate
Thu 07:40:00 PM 42.0828 -70.3577 105° East  Level FlightAware Approximate
Thu 07:41:00 PM 42.0760 -70.3239 105° East  Level FlightAware Approximate
Thu 07:42:00 PM 42.0691 -70.2901 105° East  Level FlightAware Approximate
Thu 07:43:00 PM 42.0623 -70.2562 105° East  Level FlightAware Approximate
Thu 07:44:00 PM 42.0554 -70.2225 105° East  Level FlightAware Approximate
Thu 07:45:00 PM 42.0485 -70.1887 105° East  Level FlightAware Approximate
Thu 07:46:00 PM 42.0416 -70.1549 105° East  Level FlightAware Approximate
Thu 07:47:00 PM 42.0347 -70.1211 105° East  Level FlightAware Approximate
Thu 07:48:00 PM 42.0087 -70.1190 180° South  Level Estimated
Thu 07:49:00 PM 41.9830 -70.1136 171° South  Level FlightAware Approximate
Thu 07:50:00 PM 41.9573 -70.1082 171° South  Level FlightAware Approximate
Thu 07:51:00 PM 41.9316 -70.1028 171° South  Level FlightAware Approximate
Thu 07:52:00 PM 41.9059 -70.0974 171° South  Level FlightAware Approximate
Thu 07:53:00 PM 41.8801 -70.0920 171° South  Level FlightAware Approximate
Thu 07:54:00 PM 41.8544 -70.0866 171° South  Level FlightAware Approximate
Thu 07:55:00 PM 41.8287 -70.0812 171° South  Level FlightAware Approximate
Thu 07:56:00 PM 41.8030 -70.0758 171° South  Level FlightAware Approximate
Thu 07:57:00 PM 41.7773 -70.0704 171° South  Level FlightAware Approximate
Thu 07:58:00 PM 41.7516 -70.0650 171° South  Level FlightAware Approximate

Login

Don't have an account? Register now (free) for customized features, flight alerts, and more!